sensor_id;sensor_type;location;lat;lon;timestamp;pressure;altitude;pressure_sealevel;temperature
64947;BMP280;51469;52.150;4.682;2023-10-08T00:03:31;102483.16;;;25.04
64947;BMP280;51469;52.150;4.682;2023-10-08T00:05:58;102487.06;;;24.94
64947;BMP280;51469;52.150;4.682;2023-10-08T00:08:23;102492.31;;;24.92
64947;BMP280;51469;52.150;4.682;2023-10-08T00:10:48;102484.06;;;24.85
64947;BMP280;51469;52.150;4.682;2023-10-08T00:13:14;102481.97;;;24.89
64947;BMP280;51469;52.150;4.682;2023-10-08T00:15:44;102488.81;;;24.88
64947;BMP280;51469;52.150;4.682;2023-10-08T00:18:17;102478.13;;;24.83
64947;BMP280;51469;52.150;4.682;2023-10-08T00:20:43;102476.28;;;24.77
64947;BMP280;51469;52.150;4.682;2023-10-08T00:23:14;102473.06;;;24.78
64947;BMP280;51469;52.150;4.682;2023-10-08T00:25:42;102472.34;;;24.74
64947;BMP280;51469;52.150;4.682;2023-10-08T00:28:12;102471.63;;;24.70
64947;BMP280;51469;52.150;4.682;2023-10-08T00:30:40;102466.56;;;24.65
64947;BMP280;51469;52.150;4.682;2023-10-08T00:33:07;102471.63;;;24.70
64947;BMP280;51469;52.150;4.682;2023-10-08T00:35:37;102477.22;;;24.70
64947;BMP280;51469;52.150;4.682;2023-10-08T00:38:03;102457.94;;;24.72
64947;BMP280;51469;52.150;4.682;2023-10-08T00:40:37;102451.22;;;24.70
64947;BMP280;51469;52.150;4.682;2023-10-08T00:43:03;102438.16;;;24.63
64947;BMP280;51469;52.150;4.682;2023-10-08T00:45:38;102433.19;;;24.67
64947;BMP280;51469;52.150;4.682;2023-10-08T00:48:12;102437.38;;;24.63
64947;BMP280;51469;52.150;4.682;2023-10-08T00:50:43;102450.59;;;24.62
64947;BMP280;51469;52.150;4.682;2023-10-08T00:53:12;102459.91;;;24.59
64947;BMP280;51469;52.150;4.682;2023-10-08T00:55:48;102468.84;;;24.54
64947;BMP280;51469;52.150;4.682;2023-10-08T00:58:19;102467.38;;;24.50
64947;BMP280;51469;52.150;4.682;2023-10-08T01:00:54;102464.19;;;24.48
64947;BMP280;51469;52.150;4.682;2023-10-08T01:03:26;102460.59;;;24.47
64947;BMP280;51469;52.150;4.682;2023-10-08T01:05:54;102452.72;;;24.42
64947;BMP280;51469;52.150;4.682;2023-10-08T01:08:20;102458.81;;;24.37
64947;BMP280;51469;52.150;4.682;2023-10-08T01:11:16;102472.53;;;24.35
64947;BMP280;51469;52.150;4.682;2023-10-08T01:13:41;102469.44;;;24.30
64947;BMP280;51469;52.150;4.682;2023-10-08T01:16:10;102473.50;;;24.29
64947;BMP280;51469;52.150;4.682;2023-10-08T01:18:36;102478.66;;;24.30
64947;BMP280;51469;52.150;4.682;2023-10-08T01:21:02;102468.63;;;24.29
64947;BMP280;51469;52.150;4.682;2023-10-08T01:23:33;102479.84;;;24.29
64947;BMP280;51469;52.150;4.682;2023-10-08T01:25:59;102469.53;;;24.26
64947;BMP280;51469;52.150;4.682;2023-10-08T01:28:40;102474.78;;;24.24
64947;BMP280;51469;52.150;4.682;2023-10-08T01:31:06;102480.06;;;24.22
64947;BMP280;51469;52.150;4.682;2023-10-08T01:33:32;102483.19;;;24.24
64947;BMP280;51469;52.150;4.682;2023-10-08T01:36:03;102482.94;;;24.19
64947;BMP280;51469;52.150;4.682;2023-10-08T01:38:30;102475.28;;;24.19
64947;BMP280;51469;52.150;4.682;2023-10-08T01:40:56;102489.00;;;24.17
64947;BMP280;51469;52.150;4.682;2023-10-08T01:43:22;102503.72;;;24.21
64947;BMP280;51469;52.150;4.682;2023-10-08T01:45:48;102500.22;;;24.17
64947;BMP280;51469;52.150;4.682;2023-10-08T01:48:19;102509.84;;;24.16
64947;BMP280;51469;52.150;4.682;2023-10-08T01:50:46;102527.53;;;24.13
64947;BMP280;51469;52.150;4.682;2023-10-08T01:53:13;102531.91;;;24.14
64947;BMP280;51469;52.150;4.682;2023-10-08T01:55:40;102531.56;;;24.12
64947;BMP280;51469;52.150;4.682;2023-10-08T01:58:18;102539.63;;;24.10
64947;BMP280;51469;52.150;4.682;2023-10-08T02:00:45;102508.41;;;24.08
64947;BMP280;51469;52.150;4.682;2023-10-08T02:03:12;102527.53;;;24.13
64947;BMP280;51469;52.150;4.682;2023-10-08T02:05:40;102519.84;;;24.17
64947;BMP280;51469;52.150;4.682;2023-10-08T02:08:08;102512.28;;;24.14
64947;BMP280;51469;52.150;4.682;2023-10-08T02:10:33;102505.81;;;24.17
64947;BMP280;51469;52.150;4.682;2023-10-08T02:13:00;102486.69;;;24.12
64947;BMP280;51469;52.150;4.682;2023-10-08T02:15:27;102507.56;;;24.11
64947;BMP280;51469;52.150;4.682;2023-10-08T02:17:52;102509.91;;;24.13
64947;BMP280;51469;52.150;4.682;2023-10-08T02:20:20;102502.09;;;24.04
64947;BMP280;51469;52.150;4.682;2023-10-08T02:22:45;102512.09;;;24.05
64947;BMP280;51469;52.150;4.682;2023-10-08T02:25:11;102495.94;;;23.93
64947;BMP280;51469;52.150;4.682;2023-10-08T02:27:36;102499.25;;;23.88
64947;BMP280;51469;52.150;4.682;2023-10-08T02:30:03;102503.97;;;23.91
64947;BMP280;51469;52.150;4.682;2023-10-08T02:32:31;102512.06;;;23.89
64947;BMP280;51469;52.150;4.682;2023-10-08T02:34:57;102534.97;;;23.84
64947;BMP280;51469;52.150;4.682;2023-10-08T02:37:22;102530.59;;;23.83
64947;BMP280;51469;52.150;4.682;2023-10-08T02:39:48;102522.34;;;23.76
64947;BMP280;51469;52.150;4.682;2023-10-08T02:42:14;102523.56;;;23.75
64947;BMP280;51469;52.150;4.682;2023-10-08T02:44:39;102530.75;;;23.76
64947;BMP280;51469;52.150;4.682;2023-10-08T02:47:08;102524.44;;;23.72
64947;BMP280;51469;52.150;4.682;2023-10-08T02:49:33;102509.69;;;23.68
64947;BMP280;51469;52.150;4.682;2023-10-08T02:52:00;102523.13;;;23.57
64947;BMP280;51469;52.150;4.682;2023-10-08T02:54:25;102522.31;;;23.57
64947;BMP280;51469;52.150;4.682;2023-10-08T02:56:57;102528.38;;;23.55
64947;BMP280;51469;52.150;4.682;2023-10-08T02:59:33;102532.88;;;23.49
64947;BMP280;51469;52.150;4.682;2023-10-08T03:02:08;102532.00;;;23.52
64947;BMP280;51469;52.150;4.682;2023-10-08T03:04:46;102521.69;;;23.49
64947;BMP280;51469;52.150;4.682;2023-10-08T03:07:15;102516.94;;;23.46
64947;BMP280;51469;52.150;4.682;2023-10-08T03:09:47;102522.19;;;23.44
64947;BMP280;51469;52.150;4.682;2023-10-08T03:12:15;102529.84;;;23.40
64947;BMP280;51469;52.150;4.682;2023-10-08T03:14:41;102525.91;;;23.38
64947;BMP280;51469;52.150;4.682;2023-10-08T03:17:26;102529.84;;;23.40
64947;BMP280;51469;52.150;4.682;2023-10-08T03:19:53;102528.28;;;23.39
64947;BMP280;51469;52.150;4.682;2023-10-08T03:22:26;102534.81;;;23.33
64947;BMP280;51469;52.150;4.682;2023-10-08T03:24:58;102540.47;;;23.29
64947;BMP280;51469;52.150;4.682;2023-10-08T03:27:23;102544.50;;;23.28
64947;BMP280;51469;52.150;4.682;2023-10-08T03:29:51;102546.56;;;23.24
64947;BMP280;51469;52.150;4.682;2023-10-08T03:32:19;102555.69;;;23.28
64947;BMP280;51469;52.150;4.682;2023-10-08T03:34:51;102570.19;;;23.23
64947;BMP280;51469;52.150;4.682;2023-10-08T03:37:21;102561.78;;;23.23
64947;BMP280;51469;52.150;4.682;2023-10-08T03:39:55;102564.09;;;23.28
64947;BMP280;51469;52.150;4.682;2023-10-08T03:42:32;102566.91;;;23.28
64947;BMP280;51469;52.150;4.682;2023-10-08T03:45:06;102580.56;;;23.26
64947;BMP280;51469;52.150;4.682;2023-10-08T03:47:38;102580.84;;;23.32
64947;BMP280;51469;52.150;4.682;2023-10-08T03:50:07;102569.66;;;23.32
64947;BMP280;51469;52.150;4.682;2023-10-08T03:52:35;102551.69;;;23.29
64947;BMP280;51469;52.150;4.682;2023-10-08T03:55:04;102577.19;;;23.35
64947;BMP280;51469;52.150;4.682;2023-10-08T03:57:38;102582.09;;;23.27
64947;BMP280;51469;52.150;4.682;2023-10-08T04:00:08;102594.56;;;23.26
64947;BMP280;51469;52.150;4.682;2023-10-08T04:02:38;102604.16;;;23.25
64947;BMP280;51469;52.150;4.682;2023-10-08T04:05:11;102612.91;;;23.27
64947;BMP280;51469;52.150;4.682;2023-10-08T04:07:53;102606.97;;;23.25
64947;BMP280;51469;52.150;4.682;2023-10-08T04:10:28;102604.16;;;23.25
64947;BMP280;51469;52.150;4.682;2023-10-08T04:13:09;102611.09;;;23.17
64947;BMP280;51469;52.150;4.682;2023-10-08T04:15:36;102608.28;;;23.17
64947;BMP280;51469;52.150;4.682;2023-10-08T04:18:09;102611.09;;;23.17
64947;BMP280;51469;52.150;4.682;2023-10-08T04:20:34;102611.94;;;23.14
64947;BMP280;51469;52.150;4.682;2023-10-08T04:23:19;102629.50;;;22.92
64947;BMP280;51469;52.150;4.682;2023-10-08T04:25:47;102622.63;;;22.70
64947;BMP280;51469;52.150;4.682;2023-10-08T04:28:20;102619.34;;;22.49
64947;BMP280;51469;52.150;4.682;2023-10-08T04:30:46;102617.00;;;22.44
64947;BMP280;51469;52.150;4.682;2023-10-08T04:33:18;102606.66;;;22.41
64947;BMP280;51469;52.150;4.682;2023-10-08T04:35:45;102610.00;;;22.29
64947;BMP280;51469;52.150;4.682;2023-10-08T04:38:19;102629.91;;;22.01
64947;BMP280;51469;52.150;4.682;2023-10-08T04:40:47;102633.44;;;22.05
64947;BMP280;51469;52.150;4.682;2023-10-08T04:43:18;102619.75;;;22.14
64947;BMP280;51469;52.150;4.682;2023-10-08T04:46:00;102609.00;;;22.12
64947;BMP280;51469;52.150;4.682;2023-10-08T04:48:30;102630.72;;;21.98
64947;BMP280;51469;52.150;4.682;2023-10-08T04:50:58;102645.78;;;21.74
64947;BMP280;51469;52.150;4.682;2023-10-08T04:53:34;102641.63;;;21.89
64947;BMP280;51469;52.150;4.682;2023-10-08T04:56:07;102630.41;;;21.92
64947;BMP280;51469;52.150;4.682;2023-10-08T04:58:39;102624.94;;;21.82
64947;BMP280;51469;52.150;4.682;2023-10-08T05:01:07;102624.97;;;21.75
64947;BMP280;51469;52.150;4.682;2023-10-08T05:03:53;102623.25;;;21.88
64947;BMP280;51469;52.150;4.682;2023-10-08T05:06:29;102632.78;;;21.94
64947;BMP280;51469;52.150;4.682;2023-10-08T05:09:04;102635.94;;;21.96
64947;BMP280;51469;52.150;4.682;2023-10-08T05:11:38;102639.78;;;21.72
64947;BMP280;51469;52.150;4.682;2023-10-08T05:14:17;102637.44;;;21.67
64947;BMP280;51469;52.150;4.682;2023-10-08T05:17:08;102634.63;;;21.67
64947;BMP280;51469;52.150;4.682;2023-10-08T05:19:40;102640.00;;;21.47
64947;BMP280;51469;52.150;4.682;2023-10-08T05:22:07;102635.69;;;21.36
64947;BMP280;51469;52.150;4.682;2023-10-08T05:24:51;102644.34;;;21.52
64947;BMP280;51469;52.150;4.682;2023-10-08T05:27:40;102648.19;;;21.68
64947;BMP280;51469;52.150;4.682;2023-10-08T05:30:21;102640.59;;;21.72
64947;BMP280;51469;52.150;4.682;2023-10-08T05:32:56;102646.88;;;21.80
64947;BMP280;51469;52.150;4.682;2023-10-08T05:35:41;102622.97;;;21.75
64947;BMP280;51469;52.150;4.682;2023-10-08T05:38:14;102622.16;;;21.78
64947;BMP280;51469;52.150;4.682;2023-10-08T05:41:04;102623.41;;;21.74
64947;BMP280;51469;52.150;4.682;2023-10-08T05:43:32;102635.47;;;21.64
64947;BMP280;51469;52.150;4.682;2023-10-08T05:46:19;102642.97;;;21.30
64947;BMP280;51469;52.150;4.682;2023-10-08T05:49:04;102648.88;;;21.39
64947;BMP280;51469;52.150;4.682;2023-10-08T05:51:37;102636.53;;;21.33
64947;BMP280;51469;52.150;4.682;2023-10-08T05:54:24;102650.75;;;21.49
64947;BMP280;51469;52.150;4.682;2023-10-08T05:57:08;102650.75;;;21.49
64947;BMP280;51469;52.150;4.682;2023-10-08T05:59:41;102650.06;;;21.38
64947;BMP280;51469;52.150;4.682;2023-10-08T06:02:25;102661.91;;;21.52
64947;BMP280;51469;52.150;4.682;2023-10-08T06:05:13;102672.22;;;21.62
64947;BMP280;51469;52.150;4.682;2023-10-08T06:07:45;102681.13;;;21.47
64947;BMP280;51469;52.150;4.682;2023-10-08T06:12:58;102699.41;;;20.90
64947;BMP280;51469;52.150;4.682;2023-10-08T06:15:42;102691.78;;;21.01
64947;BMP280;51469;52.150;4.682;2023-10-08T06:18:18;102699.78;;;20.92
64947;BMP280;51469;52.150;4.682;2023-10-08T06:20:47;102703.47;;;20.78
64947;BMP280;51469;52.150;4.682;2023-10-08T06:23:14;102707.78;;;20.90
64947;BMP280;51469;52.150;4.682;2023-10-08T06:25:44;102703.88;;;20.70
64947;BMP280;51469;52.150;4.682;2023-10-08T06:28:13;102699.84;;;20.85
64947;BMP280;51469;52.150;4.682;2023-10-08T06:30:40;102699.78;;;20.92
64947;BMP280;51469;52.150;4.682;2023-10-08T06:33:07;102706.91;;;21.07
64947;BMP280;51469;52.150;4.682;2023-10-08T06:35:33;102711.00;;;20.85
64947;BMP280;51469;52.150;4.682;2023-10-08T06:37:58;102702.13;;;21.07
64947;BMP280;51469;52.150;4.682;2023-10-08T06:40:25;102717.59;;;21.19
64947;BMP280;51469;52.150;4.682;2023-10-08T06:43:03;102722.13;;;20.92
64947;BMP280;51469;52.150;4.682;2023-10-08T06:45:41;102730.84;;;21.01
64947;BMP280;51469;52.150;4.682;2023-10-08T06:48:07;102742.41;;;20.96
64947;BMP280;51469;52.150;4.682;2023-10-08T06:50:33;102740.88;;;20.84
64947;BMP280;51469;52.150;4.682;2023-10-08T06:53:03;102741.72;;;20.78
64947;BMP280;51469;52.150;4.682;2023-10-08T06:55:33;102730.22;;;20.62
64947;BMP280;51469;52.150;4.682;2023-10-08T06:58:01;102742.19;;;20.59
64947;BMP280;51469;52.150;4.682;2023-10-08T07:00:31;102738.16;;;20.74
64947;BMP280;51469;52.150;4.682;2023-10-08T07:03:09;102748.59;;;20.42
64947;BMP280;51469;52.150;4.682;2023-10-08T07:05:41;102748.53;;;20.56
64947;BMP280;51469;52.150;4.682;2023-10-08T07:08:08;102740.97;;;20.56
64947;BMP280;51469;52.150;4.682;2023-10-08T07:10:33;102737.38;;;20.63
64947;BMP280;51469;52.150;4.682;2023-10-08T07:13:00;102750.97;;;20.40
64947;BMP280;51469;52.150;4.682;2023-10-08T07:15:28;102758.13;;;20.62
64947;BMP280;51469;52.150;4.682;2023-10-08T07:17:55;102759.31;;;20.47
64947;BMP280;51469;52.150;4.682;2023-10-08T07:20:21;102762.91;;;20.54
64947;BMP280;51469;52.150;4.682;2023-10-08T07:22:49;102758.13;;;20.58
64947;BMP280;51469;52.150;4.682;2023-10-08T07:25:22;102756.06;;;20.73
64947;BMP280;51469;52.150;4.682;2023-10-08T07:27:48;102761.66;;;20.66
64947;BMP280;51469;52.150;4.682;2023-10-08T07:30:14;102758.13;;;20.62
64947;BMP280;51469;52.150;4.682;2023-10-08T07:32:54;102762.88;;;20.65
64947;BMP280;51469;52.150;4.682;2023-10-08T07:35:20;102750.16;;;20.57
64947;BMP280;51469;52.150;4.682;2023-10-08T07:37:46;102771.66;;;20.67
64947;BMP280;51469;52.150;4.682;2023-10-08T07:40:13;102778.41;;;20.66
64947;BMP280;51469;52.150;4.682;2023-10-08T07:42:39;102785.19;;;20.65
64947;BMP280;51469;52.150;4.682;2023-10-08T07:45:05;102785.16;;;20.72
64947;BMP280;51469;52.150;4.682;2023-10-08T07:47:30;102781.97;;;20.80
64947;BMP280;51469;52.150;4.682;2023-10-08T07:49:56;102785.09;;;21.00
64947;BMP280;51469;52.150;4.682;2023-10-08T07:52:21;102791.44;;;21.04
64947;BMP280;51469;52.150;4.682;2023-10-08T07:54:47;102795.47;;;20.92
64947;BMP280;51469;52.150;4.682;2023-10-08T07:57:13;102801.03;;;21.03
64947;BMP280;51469;52.150;4.682;2023-10-08T07:59:43;102800.19;;;21.13
64947;BMP280;51469;52.150;4.682;2023-10-08T08:02:12;102801.47;;;20.91
64947;BMP280;51469;52.150;4.682;2023-10-08T08:04:41;102789.84;;;21.10
64947;BMP280;51469;52.150;4.682;2023-10-08T08:07:16;102801.81;;;21.07
64947;BMP280;51469;52.150;4.682;2023-10-08T08:09:45;102788.69;;;20.97
64947;BMP280;51469;52.150;4.682;2023-10-08T08:12:18;102796.19;;;21.14
64947;BMP280;51469;52.150;4.682;2023-10-08T08:14:45;102809.41;;;21.03
64947;BMP280;51469;52.150;4.682;2023-10-08T08:17:10;102812.09;;;21.31
64947;BMP280;51469;52.150;4.682;2023-10-08T08:19:47;102816.44;;;21.32
64947;BMP280;51469;52.150;4.682;2023-10-08T08:22:13;102818.50;;;21.17
64947;BMP280;51469;52.150;4.682;2023-10-08T08:24:46;102822.03;;;21.39
64947;BMP280;51469;52.150;4.682;2023-10-08T08:27:12;102819.50;;;21.62
64947;BMP280;51469;52.150;4.682;2023-10-08T08:29:51;102818.25;;;21.63
64947;BMP280;51469;52.150;4.682;2023-10-08T08:32:23;102824.63;;;21.67
64947;BMP280;51469;52.150;4.682;2023-10-08T08:34:49;102827.47;;;21.60
64947;BMP280;51469;52.150;4.682;2023-10-08T08:37:17;102836.59;;;21.71
64947;BMP280;51469;52.150;4.682;2023-10-08T08:39:43;102827.56;;;21.46
64947;BMP280;51469;52.150;4.682;2023-10-08T08:42:08;102829.16;;;21.40
64947;BMP280;51469;52.150;4.682;2023-10-08T08:44:37;102819.66;;;21.34
64947;BMP280;51469;52.150;4.682;2023-10-08T08:47:10;102834.34;;;21.45
64947;BMP280;51469;52.150;4.682;2023-10-08T08:49:40;102836.41;;;21.30
64947;BMP280;51469;52.150;4.682;2023-10-08T08:52:07;102826.81;;;21.38
64947;BMP280;51469;52.150;4.682;2023-10-08T08:54:32;102825.47;;;21.64
64947;BMP280;51469;52.150;4.682;2023-10-08T08:57:00;102826.59;;;21.77
64947;BMP280;51469;52.150;4.682;2023-10-08T08:59:29;102822.84;;;21.94
64947;BMP280;51469;52.150;4.682;2023-10-08T09:01:57;102831.28;;;21.87
64947;BMP280;51469;52.150;4.682;2023-10-08T09:04:30;102825.00;;;21.76
64947;BMP280;51469;52.150;4.682;2023-10-08T09:06:58;102810.22;;;21.75
64947;BMP280;51469;52.150;4.682;2023-10-08T09:09:32;102806.56;;;21.85
64947;BMP280;51469;52.150;4.682;2023-10-08T09:11:57;102810.19;;;21.79
64947;BMP280;51469;52.150;4.682;2023-10-08T09:14:24;102804.56;;;21.82
64947;BMP280;51469;52.150;4.682;2023-10-08T09:16:53;102810.09;;;21.93
64947;BMP280;51469;52.150;4.682;2023-10-08T09:19:20;102807.81;;;21.81
64947;BMP280;51469;52.150;4.682;2023-10-08T09:22:00;102813.31;;;21.88
64947;BMP280;51469;52.150;4.682;2023-10-08T09:24:30;102812.41;;;22.01
64947;BMP280;51469;52.150;4.682;2023-10-08T09:26:55;102819.50;;;22.16
64947;BMP280;51469;52.150;4.682;2023-10-08T09:29:24;102819.56;;;22.06
64947;BMP280;51469;52.150;4.682;2023-10-08T09:31:57;102823.06;;;22.17
64947;BMP280;51469;52.150;4.682;2023-10-08T09:34:28;102826.63;;;22.21
64947;BMP280;51469;52.150;4.682;2023-10-08T09:36:55;102824.03;;;22.40
64947;BMP280;51469;52.150;4.682;2023-10-08T09:39:22;102819.25;;;22.41
64947;BMP280;51469;52.150;4.682;2023-10-08T09:41:53;102815.47;;;22.17
64947;BMP280;51469;52.150;4.682;2023-10-08T09:44:19;102804.59;;;22.30
64947;BMP280;51469;52.150;4.682;2023-10-08T09:46:49;102788.13;;;22.39
64947;BMP280;51469;52.150;4.682;2023-10-08T09:49:16;102804.44;;;22.44
64947;BMP280;51469;52.150;4.682;2023-10-08T09:51:44;102798.47;;;22.42
64947;BMP280;51469;52.150;4.682;2023-10-08T09:54:11;102808.00;;;22.48
64947;BMP280;51469;52.150;4.682;2023-10-08T09:56:41;102809.00;;;22.24
64947;BMP280;51469;52.150;4.682;2023-10-08T09:59:08;102821.75;;;22.32
64947;BMP280;51469;52.150;4.682;2023-10-08T10:01:38;102807.00;;;22.24
64947;BMP280;51469;52.150;4.682;2023-10-08T10:04:08;102806.78;;;22.05
64947;BMP280;51469;52.150;4.682;2023-10-08T10:06:34;102832.34;;;22.07
64947;BMP280;51469;52.150;4.682;2023-10-08T10:09:01;102827.94;;;22.06
64947;BMP280;51469;52.150;4.682;2023-10-08T10:11:28;102820.28;;;22.17
64947;BMP280;51469;52.150;4.682;2023-10-08T10:13:58;102829.22;;;22.42
64947;BMP280;51469;52.150;4.682;2023-10-08T10:16:27;102828.59;;;22.24
64947;BMP280;51469;52.150;4.682;2023-10-08T10:18:57;102824.16;;;22.30
64947;BMP280;51469;52.150;4.682;2023-10-08T10:21:29;102828.97;;;22.29
64947;BMP280;51469;52.150;4.682;2023-10-08T10:23:56;102831.31;;;22.34
64947;BMP280;51469;52.150;4.682;2023-10-08T10:26:22;102826.09;;;22.36
64947;BMP280;51469;52.150;4.682;2023-10-08T10:31:32;102832.13;;;22.35
64947;BMP280;51469;52.150;4.682;2023-10-08T10:34:07;102825.63;;;22.45
64947;BMP280;51469;52.150;4.682;2023-10-08T10:36:34;102825.63;;;22.45
64947;BMP280;51469;52.150;4.682;2023-10-08T10:39:00;102822.44;;;22.43
64947;BMP280;51469;52.150;4.682;2023-10-08T10:41:27;102828.09;;;22.36
64947;BMP280;51469;52.150;4.682;2023-10-08T10:43:53;102824.09;;;22.37
64947;BMP280;51469;52.150;4.682;2023-10-08T10:46:18;102821.56;;;22.53
64947;BMP280;51469;52.150;4.682;2023-10-08T10:48:56;102818.81;;;22.46
64947;BMP280;51469;52.150;4.682;2023-10-08T10:51:40;102820.16;;;22.31
64947;BMP280;51469;52.150;4.682;2023-10-08T10:54:06;102816.53;;;22.34
64947;BMP280;51469;52.150;4.682;2023-10-08T10:56:35;102819.94;;;22.52
64947;BMP280;51469;52.150;4.682;2023-10-08T10:59:12;102815.75;;;22.70
64947;BMP280;51469;52.150;4.682;2023-10-08T11:01:47;102813.81;;;22.64
64947;BMP280;51469;52.150;4.682;2023-10-08T11:04:17;102815.72;;;22.74
64947;BMP280;51469;52.150;4.682;2023-10-08T11:06:46;102813.16;;;22.53
64947;BMP280;51469;52.150;4.682;2023-10-08T11:09:12;102810.28;;;22.60
64947;BMP280;51469;52.150;4.682;2023-10-08T11:12:04;102816.69;;;22.57
64947;BMP280;51469;52.150;4.682;2023-10-08T11:14:41;102817.47;;;22.61
64947;BMP280;51469;52.150;4.682;2023-10-08T11:17:18;102797.47;;;22.59
64947;BMP280;51469;52.150;4.682;2023-10-08T11:19:47;102816.22;;;22.98
64947;BMP280;51469;52.150;4.682;2023-10-08T11:22:14;102817.06;;;22.95
64947;BMP280;51469;52.150;4.682;2023-10-08T11:24:44;102819.56;;;23.16
64947;BMP280;51469;52.150;4.682;2023-10-08T11:27:14;102815.31;;;23.08
64947;BMP280;51469;52.150;4.682;2023-10-08T11:29:49;102817.72;;;22.70
64947;BMP280;51469;52.150;4.682;2023-10-08T11:32:26;102812.66;;;22.61
64947;BMP280;51469;52.150;4.682;2023-10-08T11:34:58;102809.47;;;22.59
64947;BMP280;51469;52.150;4.682;2023-10-08T11:37:47;102812.13;;;22.70
64947;BMP280;51469;52.150;4.682;2023-10-08T11:40:23;102799.09;;;22.60
64947;BMP280;51469;52.150;4.682;2023-10-08T11:42:54;102799.38;;;23.02
64947;BMP280;51469;52.150;4.682;2023-10-08T11:45:23;102799.16;;;23.19
64947;BMP280;51469;52.150;4.682;2023-10-08T11:48:06;102799.19;;;23.16
64947;BMP280;51469;52.150;4.682;2023-10-08T11:50:38;102793.91;;;22.91
64947;BMP280;51469;52.150;4.682;2023-10-08T11:53:04;102795.75;;;23.01
64947;BMP280;51469;52.150;4.682;2023-10-08T11:55:35;102792.59;;;22.99
64947;BMP280;51469;52.150;4.682;2023-10-08T11:58:02;102774.97;;;23.29
64947;BMP280;51469;52.150;4.682;2023-10-08T12:00:43;102775.47;;;23.50
64947;BMP280;51469;52.150;4.682;2023-10-08T12:03:10;102767.31;;;23.59
64947;BMP280;51469;52.150;4.682;2023-10-08T12:05:37;102761.91;;;23.45
64947;BMP280;51469;52.150;4.682;2023-10-08T12:08:08;102758.78;;;23.43
64947;BMP280;51469;52.150;4.682;2023-10-08T12:10:34;102753.84;;;23.51
64947;BMP280;51469;52.150;4.682;2023-10-08T12:12:59;102742.38;;;23.65
64947;BMP280;51469;52.150;4.682;2023-10-08T12:15:25;102742.75;;;23.67
64947;BMP280;51469;52.150;4.682;2023-10-08T12:18:04;102742.50;;;23.08
64947;BMP280;51469;52.150;4.682;2023-10-08T12:20:51;102741.69;;;23.34
64947;BMP280;51469;52.150;4.682;2023-10-08T12:23:19;102732.22;;;23.25
64947;BMP280;51469;52.150;4.682;2023-10-08T12:25:52;102731.44;;;23.24
64947;BMP280;51469;52.150;4.682;2023-10-08T12:28:18;102735.59;;;23.39
64947;BMP280;51469;52.150;4.682;2023-10-08T12:30:44;102715.25;;;23.35
64947;BMP280;51469;52.150;4.682;2023-10-08T12:33:10;102738.19;;;23.76
64947;BMP280;51469;52.150;4.682;2023-10-08T12:35:39;102736.09;;;24.03
64947;BMP280;51469;52.150;4.682;2023-10-08T12:38:05;102722.00;;;23.87
64947;BMP280;51469;52.150;4.682;2023-10-08T12:40:31;102718.31;;;23.67
64947;BMP280;51469;52.150;4.682;2023-10-08T12:43:08;102707.22;;;23.60
64947;BMP280;51469;52.150;4.682;2023-10-08T12:45:33;102710.53;;;23.55
64947;BMP280;51469;52.150;4.682;2023-10-08T12:47:59;102709.44;;;23.72
64947;BMP280;51469;52.150;4.682;2023-10-08T12:50:24;102703.09;;;23.68
64947;BMP280;51469;52.150;4.682;2023-10-08T12:53:10;102707.72;;;23.78
64947;BMP280;51469;52.150;4.682;2023-10-08T12:55:39;102711.25;;;23.59
64947;BMP280;51469;52.150;4.682;2023-10-08T12:58:06;102706.31;;;23.17
64947;BMP280;51469;52.150;4.682;2023-10-08T13:00:36;102698.94;;;23.30
64947;BMP280;51469;52.150;4.682;2023-10-08T13:03:06;102701.88;;;23.46
64947;BMP280;51469;52.150;4.682;2023-10-08T13:05:43;102691.84;;;23.45
64947;BMP280;51469;52.150;4.682;2023-10-08T13:08:10;102693.31;;;23.30
64947;BMP280;51469;52.150;4.682;2023-10-08T13:10:39;102692.84;;;23.58
64947;BMP280;51469;52.150;4.682;2023-10-08T13:13:06;102694.97;;;23.74
64947;BMP280;51469;52.150;4.682;2023-10-08T13:15:32;102685.31;;;23.55
64947;BMP280;51469;52.150;4.682;2023-10-08T13:18:00;102678.81;;;23.81
64947;BMP280;51469;52.150;4.682;2023-10-08T13:20:28;102685.31;;;23.55
64947;BMP280;51469;52.150;4.682;2023-10-08T13:23:01;102681.28;;;23.56
64947;BMP280;51469;52.150;4.682;2023-10-08T13:25:27;102685.13;;;23.43
64947;BMP280;51469;52.150;4.682;2023-10-08T13:27:52;102687.88;;;23.69
64947;BMP280;51469;52.150;4.682;2023-10-08T13:30:19;102692.03;;;23.61
64947;BMP280;51469;52.150;4.682;2023-10-08T13:32:46;102696.06;;;23.57
64947;BMP280;51469;52.150;4.682;2023-10-08T13:35:11;102709.56;;;23.65
64947;BMP280;51469;52.150;4.682;2023-10-08T13:37:37;102698.22;;;23.72
64947;BMP280;51469;52.150;4.682;2023-10-08T13:40:03;102698.09;;;23.79
64947;BMP280;51469;52.150;4.682;2023-10-08T13:42:29;102698.09;;;23.79
64947;BMP280;51469;52.150;4.682;2023-10-08T13:44:55;102698.09;;;23.79
64947;BMP280;51469;52.150;4.682;2023-10-08T13:47:23;102690.66;;;23.92
64947;BMP280;51469;52.150;4.682;2023-10-08T13:49:54;102690.25;;;23.71
64947;BMP280;51469;52.150;4.682;2023-10-08T13:52:20;102691.16;;;23.64
64947;BMP280;51469;52.150;4.682;2023-10-08T13:54:48;102682.00;;;23.83
64947;BMP280;51469;52.150;4.682;2023-10-08T13:57:18;102678.97;;;23.74
64947;BMP280;51469;52.150;4.682;2023-10-08T13:59:47;102674.88;;;23.79
64947;BMP280;51469;52.150;4.682;2023-10-08T14:02:14;102680.41;;;23.82
64947;BMP280;51469;52.150;4.682;2023-10-08T14:04:43;102680.50;;;23.98
64947;BMP280;51469;52.150;4.682;2023-10-08T14:07:15;102680.69;;;24.11
64947;BMP280;51469;52.150;4.682;2023-10-08T14:09:42;102682.88;;;24.19
64947;BMP280;51469;52.150;4.682;2023-10-08T14:12:10;102671.09;;;24.08
64947;BMP280;51469;52.150;4.682;2023-10-08T14:14:36;102666.91;;;24.16
64947;BMP280;51469;52.150;4.682;2023-10-08T14:17:06;102670.38;;;24.04
64947;BMP280;51469;52.150;4.682;2023-10-08T14:19:32;102667.50;;;24.08
64947;BMP280;51469;52.150;4.682;2023-10-08T14:22:17;102663.88;;;24.11